Terminal Aerodrome Forecast
Issued by NWS

Home | Current Version | Previous Version | Graphics & Text | Print | Product List | Glossary On
Versions: 1 2 3 4 5 6 7 8 9 10 11 12 13 14 15 16 17 18 19 20
000
FTUS43 KGRB 031800 CCA
TAFCWA
TAF COR
KCWA 031810Z 0318/0418 16007KT 3SM -FZDZSN BR OVC022
     FM032000 28010G19KT P6SM -FZDZSN SCT012 OVC025
     FM032200 29010G18KT P6SM BKN030 BKN100
     FM040300 29012G20KT P6SM SCT100
     FM041600 29013G23KT P6SM BKN022=

USA.gov is the U.S. government's official web portal to all federal, state and local government web resources and services.